createdAt,value
2023-05-14T00:00:57.220Z,49.33
2023-05-14T00:06:04.715Z,49.66
2023-05-14T00:11:12.202Z,49.82
2023-05-14T00:16:19.512Z,50.10
2023-05-14T00:21:26.949Z,50.22
2023-05-14T00:26:34.541Z,50.67
2023-05-14T00:31:41.887Z,51.06
2023-05-14T00:36:49.570Z,51.23
2023-05-14T00:41:57.092Z,51.39
2023-05-14T00:47:05.179Z,51.09
2023-05-14T00:52:14.735Z,51.14
2023-05-14T00:57:22.770Z,51.20
2023-05-14T01:02:30.252Z,51.16
2023-05-14T01:07:51.245Z,51.53
2023-05-14T01:13:05.850Z,51.76
2023-05-14T01:18:15.729Z,51.85
2023-05-14T01:23:23.603Z,51.81
2023-05-14T01:28:35.777Z,52.02
2023-05-14T01:33:45.081Z,52.08
2023-05-14T01:38:53.561Z,52.07
2023-05-14T01:44:01.340Z,52.00
2023-05-14T01:49:09.003Z,52.32
2023-05-14T01:54:16.492Z,52.41
2023-05-14T01:59:23.749Z,52.32
2023-05-14T02:04:31.038Z,52.62
2023-05-14T02:09:38.365Z,52.71
2023-05-14T02:14:46.447Z,52.61
2023-05-14T02:19:53.967Z,52.98
2023-05-14T02:25:01.519Z,52.96
2023-05-14T02:30:10.684Z,53.19
2023-05-14T02:35:19.531Z,53.59
2023-05-14T02:40:27.095Z,53.50
2023-05-14T02:45:34.697Z,53.76
2023-05-14T02:50:42.023Z,53.85
2023-05-14T02:55:49.385Z,53.97
2023-05-14T03:00:56.976Z,54.27
2023-05-14T03:06:05.216Z,54.81
2023-05-14T03:11:13.093Z,55.05
2023-05-14T03:16:20.775Z,55.15
2023-05-14T03:21:28.243Z,55.53
2023-05-14T03:26:35.571Z,55.21
2023-05-14T03:31:42.989Z,55.70
2023-05-14T03:36:50.951Z,55.77
2023-05-14T03:41:59.352Z,55.99
2023-05-14T03:47:07.909Z,56.76
2023-05-14T03:52:15.389Z,57.04
2023-05-14T03:57:24.309Z,57.20
2023-05-14T04:02:31.672Z,57.02
2023-05-14T04:07:39.077Z,57.22
2023-05-14T04:12:46.560Z,57.11
2023-05-14T04:17:54.231Z,57.06
2023-05-14T04:23:01.563Z,56.88
2023-05-14T04:28:09.166Z,56.66
2023-05-14T04:33:16.411Z,56.55
2023-05-14T04:38:24.183Z,56.22
2023-05-14T04:43:31.506Z,56.10
2023-05-14T04:48:39.146Z,56.08
2023-05-14T04:53:46.956Z,56.13
2023-05-14T04:58:54.543Z,56.56
2023-05-14T05:04:01.893Z,56.68
2023-05-14T05:09:10.468Z,56.58
2023-05-14T05:14:17.868Z,56.50
2023-05-14T05:19:35.746Z,56.28
2023-05-14T05:24:49.812Z,56.06
2023-05-14T05:29:57.931Z,55.63
2023-05-14T05:35:05.624Z,55.08
2023-05-14T05:40:14.782Z,54.76
2023-05-14T05:45:22.642Z,53.92
2023-05-14T05:50:30.513Z,53.32
2023-05-14T05:55:38.212Z,52.46
2023-05-14T06:00:45.870Z,51.75
2023-05-14T06:05:53.590Z,51.08
2023-05-14T06:11:01.131Z,50.34
2023-05-14T06:16:09.355Z,49.88
2023-05-14T06:21:16.764Z,49.50
2023-05-14T06:26:24.784Z,48.89
2023-05-14T06:31:32.361Z,48.54
2023-05-14T06:36:39.905Z,48.09
2023-05-14T06:41:47.463Z,47.91
2023-05-14T06:46:55.382Z,47.39
2023-05-14T06:52:04.467Z,46.81
2023-05-14T06:57:12.383Z,46.05
2023-05-14T07:02:20.651Z,45.13
2023-05-14T07:07:28.489Z,44.41
2023-05-14T07:12:37.284Z,43.65
2023-05-14T07:17:44.777Z,42.98
2023-05-14T07:22:52.967Z,42.27
2023-05-14T07:28:00.499Z,41.81
2023-05-14T07:33:08.134Z,41.22
2023-05-14T07:38:16.066Z,40.96
2023-05-14T07:43:24.082Z,40.67
2023-05-14T07:48:31.914Z,40.29
2023-05-14T07:53:39.893Z,39.78
2023-05-14T07:58:47.766Z,39.41
2023-05-14T08:03:55.579Z,39.04
2023-05-14T08:09:05.837Z,38.19
2023-05-14T08:14:13.778Z,37.33
2023-05-14T08:19:21.872Z,36.69
2023-05-14T08:24:30.588Z,36.39
2023-05-14T08:29:38.467Z,36.00
2023-05-14T08:34:45.948Z,35.64
2023-05-14T08:39:54.449Z,34.82
2023-05-14T08:45:05.133Z,34.46
2023-05-14T08:50:13.814Z,33.76
2023-05-14T08:55:21.903Z,33.48
2023-05-14T09:00:29.884Z,33.12
2023-05-14T09:05:37.453Z,32.91
2023-05-14T09:10:44.963Z,31.58
2023-05-14T09:15:53.491Z,31.50
2023-05-14T09:21:02.368Z,31.29
2023-05-14T09:26:11.069Z,30.81
2023-05-14T09:31:18.611Z,30.84
2023-05-14T09:36:27.826Z,30.58
2023-05-14T09:41:35.149Z,30.55
2023-05-14T09:46:42.689Z,30.24
2023-05-14T09:51:50.706Z,30.59
2023-05-14T09:56:58.397Z,30.47
2023-05-14T10:02:07.268Z,30.19
2023-05-14T10:07:16.996Z,30.20
2023-05-14T10:12:31.352Z,30.11
2023-05-14T10:17:43.239Z,29.68
2023-05-14T10:22:50.801Z,29.36
2023-05-14T10:27:58.711Z,29.20
2023-05-14T10:33:14.725Z,28.99
2023-05-14T10:38:31.157Z,28.68
2023-05-14T10:43:41.943Z,28.76
2023-05-14T10:48:50.679Z,28.47
2023-05-14T10:53:59.071Z,28.44
2023-05-14T10:59:08.386Z,28.69
2023-05-14T11:04:25.373Z,28.78
2023-05-14T11:09:34.203Z,28.43
2023-05-14T11:14:41.879Z,28.24
2023-05-14T11:19:51.080Z,28.02
2023-05-14T11:24:59.822Z,27.76
2023-05-14T11:30:14.418Z,27.40
2023-05-14T11:35:22.020Z,27.32
2023-05-14T11:40:29.556Z,27.22
2023-05-14T11:45:38.473Z,27.10
2023-05-14T11:50:49.296Z,27.10
2023-05-14T11:55:58.775Z,26.74
2023-05-14T12:01:06.628Z,26.74
2023-05-14T12:06:13.993Z,26.88
2023-05-14T12:11:24.667Z,26.58
2023-05-14T12:16:36.907Z,26.68
2023-05-14T12:21:48.115Z,26.60
2023-05-14T12:26:55.992Z,26.55
2023-05-14T12:32:05.082Z,26.67
2023-05-14T12:37:12.835Z,26.78
2023-05-14T12:42:20.425Z,26.37
2023-05-14T12:47:28.288Z,26.08
2023-05-14T12:52:39.661Z,26.23
2023-05-14T12:57:48.497Z,26.19
2023-05-14T13:02:56.396Z,25.82
2023-05-14T13:08:04.847Z,25.56
2023-05-14T13:13:15.342Z,25.42
2023-05-14T13:18:27.864Z,25.43
2023-05-14T13:23:35.852Z,25.46
2023-05-14T13:28:43.311Z,25.55
2023-05-14T13:33:50.831Z,25.50
2023-05-14T13:38:58.627Z,25.23
2023-05-14T13:44:06.790Z,25.19
2023-05-14T13:49:14.368Z,25.02
2023-05-14T13:54:21.859Z,24.82
2023-05-14T13:59:30.207Z,24.84
2023-05-14T14:04:38.127Z,24.92
2023-05-14T14:09:45.619Z,24.90
2023-05-14T14:14:53.425Z,24.99
2023-05-14T14:20:00.860Z,25.10
2023-05-14T14:25:09.630Z,25.10
2023-05-14T14:30:17.978Z,24.97
2023-05-14T14:35:25.787Z,24.88
2023-05-14T14:40:34.600Z,24.47
2023-05-14T14:45:43.265Z,24.26
2023-05-14T14:50:50.857Z,24.36
2023-05-14T14:55:59.084Z,24.25
2023-05-14T15:01:06.747Z,24.53
2023-05-14T15:06:14.651Z,24.60
2023-05-14T15:11:22.721Z,24.55
2023-05-14T15:16:30.240Z,24.10
2023-05-14T15:21:38.269Z,23.90
2023-05-14T15:26:46.667Z,23.90
2023-05-14T15:31:54.484Z,24.04
2023-05-14T15:37:02.062Z,24.06
2023-05-14T15:42:10.647Z,24.19
2023-05-14T15:47:18.523Z,24.24
2023-05-14T15:52:26.265Z,24.39
2023-05-14T15:57:33.770Z,24.52
2023-05-14T16:02:41.871Z,24.60
2023-05-14T16:07:49.731Z,24.30
2023-05-14T16:13:01.110Z,24.20
2023-05-14T16:18:09.043Z,24.41
2023-05-14T16:23:16.613Z,24.48
2023-05-14T16:28:23.926Z,24.32
2023-05-14T16:33:31.517Z,24.12
2023-05-14T16:38:44.727Z,23.97
2023-05-14T16:44:00.649Z,24.07
2023-05-14T16:49:08.206Z,24.32
2023-05-14T16:54:17.956Z,24.54
2023-05-14T16:59:26.064Z,24.64
2023-05-14T17:04:33.873Z,24.60
2023-05-14T17:09:42.959Z,24.92
2023-05-14T17:14:50.572Z,25.17
2023-05-14T17:19:58.657Z,25.47
2023-05-14T17:25:06.733Z,25.78
2023-05-14T17:30:15.536Z,26.05
2023-05-14T17:35:24.321Z,26.19
2023-05-14T17:40:31.868Z,26.45
2023-05-14T17:45:53.185Z,26.76
2023-05-14T17:51:02.356Z,26.83
2023-05-14T17:56:10.929Z,27.22
2023-05-14T18:01:18.878Z,27.93
2023-05-14T18:06:27.024Z,27.99
2023-05-14T18:11:35.099Z,28.71
2023-05-14T18:16:43.415Z,29.36
2023-05-14T18:21:51.738Z,29.70
2023-05-14T18:26:59.529Z,30.18
2023-05-14T18:32:09.234Z,30.53
2023-05-14T18:37:17.354Z,30.81
2023-05-14T18:42:25.392Z,30.94
2023-05-14T18:47:33.393Z,31.15
2023-05-14T18:52:40.924Z,31.38
2023-05-14T18:57:49.474Z,31.74
2023-05-14T19:02:58.696Z,32.23
2023-05-14T19:08:06.802Z,32.58
2023-05-14T19:13:18.344Z,33.07
2023-05-14T19:18:26.182Z,33.50
2023-05-14T19:23:34.029Z,33.72
2023-05-14T19:28:43.436Z,34.23
2023-05-14T19:33:51.943Z,34.42
2023-05-14T19:39:06.500Z,35.12
2023-05-14T19:44:14.023Z,35.35
2023-05-14T19:49:21.381Z,35.80
2023-05-14T19:54:29.425Z,36.52
2023-05-14T19:59:38.809Z,36.72
2023-05-14T20:04:46.488Z,37.00
2023-05-14T20:09:54.315Z,37.45
2023-05-14T20:15:02.382Z,37.55
2023-05-14T20:20:12.475Z,38.42
2023-05-14T20:25:20.595Z,38.83
2023-05-14T20:30:27.891Z,39.29
2023-05-14T20:35:35.274Z,39.75
2023-05-14T20:40:45.014Z,40.05
2023-05-14T20:45:54.815Z,40.26
2023-05-14T20:51:05.359Z,40.90
2023-05-14T20:56:12.886Z,40.98
2023-05-14T21:01:21.364Z,41.85
2023-05-14T21:06:29.069Z,41.99
2023-05-14T21:11:36.763Z,42.39
2023-05-14T21:16:45.337Z,42.70
2023-05-14T21:21:53.564Z,42.63
2023-05-14T21:27:00.861Z,43.04
2023-05-14T21:32:10.622Z,43.41
2023-05-14T21:37:18.675Z,43.54
2023-05-14T21:42:26.941Z,43.53
2023-05-14T21:47:36.666Z,43.74
2023-05-14T21:52:45.702Z,43.64
2023-05-14T21:57:54.089Z,43.54
2023-05-14T22:03:02.249Z,43.31
2023-05-14T22:08:11.178Z,43.42
2023-05-14T22:13:19.348Z,43.99
2023-05-14T22:18:29.120Z,44.27
2023-05-14T22:23:37.663Z,44.69
2023-05-14T22:28:46.504Z,45.02
2023-05-14T22:33:54.762Z,44.89
2023-05-14T22:39:04.180Z,44.32
2023-05-14T22:44:11.905Z,44.42
2023-05-14T22:49:19.658Z,44.42
2023-05-14T22:54:27.940Z,44.42
2023-05-14T22:59:35.416Z,44.65
2023-05-14T23:04:43.327Z,44.12
2023-05-14T23:09:52.325Z,44.25
2023-05-14T23:15:01.560Z,44.22
2023-05-14T23:20:14.685Z,44.45
2023-05-14T23:25:22.455Z,44.66
2023-05-14T23:30:30.026Z,44.31
2023-05-14T23:35:37.574Z,44.68
2023-05-14T23:40:44.881Z,44.96
2023-05-14T23:45:52.306Z,44.68
2023-05-14T23:50:59.958Z,44.81
2023-05-14T23:56:08.499Z,45.32
